sensor_id;sensor_type;location;lat;lon;timestamp;temperature;humidity
51661;DHT22;37741;49.748;8.490;2023-07-31T00:00:57;23.00;56.80
51661;DHT22;37741;49.748;8.490;2023-07-31T00:03:23;23.00;56.70
51661;DHT22;37741;49.748;8.490;2023-07-31T00:05:49;23.00;56.90
51661;DHT22;37741;49.748;8.490;2023-07-31T00:08:14;22.90;56.70
51661;DHT22;37741;49.748;8.490;2023-07-31T00:10:43;23.00;57.00
51661;DHT22;37741;49.748;8.490;2023-07-31T00:13:10;22.90;56.80
51661;DHT22;37741;49.748;8.490;2023-07-31T00:15:36;22.90;56.80
51661;DHT22;37741;49.748;8.490;2023-07-31T00:18:01;22.90;56.40
51661;DHT22;37741;49.748;8.490;2023-07-31T00:20:27;22.90;56.80
51661;DHT22;37741;49.748;8.490;2023-07-31T00:22:52;22.90;56.70
51661;DHT22;37741;49.748;8.490;2023-07-31T00:25:18;22.80;56.80
51661;DHT22;37741;49.748;8.490;2023-07-31T00:27:43;22.80;56.80
51661;DHT22;37741;49.748;8.490;2023-07-31T00:30:14;22.80;56.80
51661;DHT22;37741;49.748;8.490;2023-07-31T00:32:41;22.80;56.70
51661;DHT22;37741;49.748;8.490;2023-07-31T00:35:13;22.80;57.00
51661;DHT22;37741;49.748;8.490;2023-07-31T00:37:39;22.70;57.00
51661;DHT22;37741;49.748;8.490;2023-07-31T00:40:05;22.70;57.50
51661;DHT22;37741;49.748;8.490;2023-07-31T00:42:31;22.60;56.90
51661;DHT22;37741;49.748;8.490;2023-07-31T00:44:56;22.60;56.90
51661;DHT22;37741;49.748;8.490;2023-07-31T00:47:23;22.60;57.10
51661;DHT22;37741;49.748;8.490;2023-07-31T00:49:49;22.60;57.20
51661;DHT22;37741;49.748;8.490;2023-07-31T00:52:15;22.60;57.10
51661;DHT22;37741;49.748;8.490;2023-07-31T00:54:41;22.50;57.20
51661;DHT22;37741;49.748;8.490;2023-07-31T00:57:10;22.50;57.20
51661;DHT22;37741;49.748;8.490;2023-07-31T00:59:36;22.50;57.40
51661;DHT22;37741;49.748;8.490;2023-07-31T01:02:02;22.40;57.50
51661;DHT22;37741;49.748;8.490;2023-07-31T01:04:46;22.40;57.40
51661;DHT22;37741;49.748;8.490;2023-07-31T01:10:19;22.40;57.50
51661;DHT22;37741;49.748;8.490;2023-07-31T01:12:47;22.30;57.60
51661;DHT22;37741;49.748;8.490;2023-07-31T01:15:13;22.30;57.50
51661;DHT22;37741;49.748;8.490;2023-07-31T01:17:41;22.30;57.60
51661;DHT22;37741;49.748;8.490;2023-07-31T01:20:14;22.30;57.70
51661;DHT22;37741;49.748;8.490;2023-07-31T01:23:11;22.20;57.70
51661;DHT22;37741;49.748;8.490;2023-07-31T01:26:03;22.20;57.80
51661;DHT22;37741;49.748;8.490;2023-07-31T01:31:12;22.20;58.00
51661;DHT22;37741;49.748;8.490;2023-07-31T01:33:40;22.10;57.90
51661;DHT22;37741;49.748;8.490;2023-07-31T01:36:06;22.20;58.00
51661;DHT22;37741;49.748;8.490;2023-07-31T01:38:33;22.10;58.00
51661;DHT22;37741;49.748;8.490;2023-07-31T01:40:58;22.10;57.90
51661;DHT22;37741;49.748;8.490;2023-07-31T01:43:25;22.10;58.10
51661;DHT22;37741;49.748;8.490;2023-07-31T01:45:52;22.10;58.00
51661;DHT22;37741;49.748;8.490;2023-07-31T01:48:24;22.10;58.10
51661;DHT22;37741;49.748;8.490;2023-07-31T01:50:49;22.00;58.10
51661;DHT22;37741;49.748;8.490;2023-07-31T01:53:20;22.00;58.00
51661;DHT22;37741;49.748;8.490;2023-07-31T01:55:47;22.00;58.10
51661;DHT22;37741;49.748;8.490;2023-07-31T01:58:12;22.00;58.10
51661;DHT22;37741;49.748;8.490;2023-07-31T02:00:41;22.00;58.20
51661;DHT22;37741;49.748;8.490;2023-07-31T02:03:07;22.00;58.20
51661;DHT22;37741;49.748;8.490;2023-07-31T02:05:59;21.90;58.20
51661;DHT22;37741;49.748;8.490;2023-07-31T02:08:24;21.90;58.30
51661;DHT22;37741;49.748;8.490;2023-07-31T02:10:50;21.90;58.40
51661;DHT22;37741;49.748;8.490;2023-07-31T02:13:16;21.90;58.40
51661;DHT22;37741;49.748;8.490;2023-07-31T02:15:42;21.90;58.40
51661;DHT22;37741;49.748;8.490;2023-07-31T02:18:07;21.90;58.40
51661;DHT22;37741;49.748;8.490;2023-07-31T02:20:34;21.80;58.40
51661;DHT22;37741;49.748;8.490;2023-07-31T02:23:00;21.80;58.50
51661;DHT22;37741;49.748;8.490;2023-07-31T02:25:26;21.80;58.50
51661;DHT22;37741;49.748;8.490;2023-07-31T02:27:56;21.80;58.70
51661;DHT22;37741;49.748;8.490;2023-07-31T02:30:21;21.80;58.80
51661;DHT22;37741;49.748;8.490;2023-07-31T02:32:47;21.80;58.80
51661;DHT22;37741;49.748;8.490;2023-07-31T02:35:15;21.80;58.90
51661;DHT22;37741;49.748;8.490;2023-07-31T02:37:42;21.80;59.00
51661;DHT22;37741;49.748;8.490;2023-07-31T02:40:08;21.70;58.90
51661;DHT22;37741;49.748;8.490;2023-07-31T02:42:34;21.80;59.00
51661;DHT22;37741;49.748;8.490;2023-07-31T02:44:59;21.80;58.80
51661;DHT22;37741;49.748;8.490;2023-07-31T02:47:25;21.80;58.80
51661;DHT22;37741;49.748;8.490;2023-07-31T02:49:52;21.80;58.90
51661;DHT22;37741;49.748;8.490;2023-07-31T02:52:18;21.80;58.80
51661;DHT22;37741;49.748;8.490;2023-07-31T02:54:45;21.80;58.90
51661;DHT22;37741;49.748;8.490;2023-07-31T02:57:11;21.80;58.70
51661;DHT22;37741;49.748;8.490;2023-07-31T02:59:36;21.80;58.70
51661;DHT22;37741;49.748;8.490;2023-07-31T03:02:02;21.80;58.80
51661;DHT22;37741;49.748;8.490;2023-07-31T03:04:28;21.80;58.80
51661;DHT22;37741;49.748;8.490;2023-07-31T03:06:53;21.80;58.80
51661;DHT22;37741;49.748;8.490;2023-07-31T03:09:19;21.80;58.90
51661;DHT22;37741;49.748;8.490;2023-07-31T03:11:46;21.70;58.90
51661;DHT22;37741;49.748;8.490;2023-07-31T03:14:12;21.70;59.00
51661;DHT22;37741;49.748;8.490;2023-07-31T03:16:37;21.70;59.10
51661;DHT22;37741;49.748;8.490;2023-07-31T03:19:03;21.70;59.10
51661;DHT22;37741;49.748;8.490;2023-07-31T03:21:29;21.70;59.10
51661;DHT22;37741;49.748;8.490;2023-07-31T03:24:04;21.70;59.30
51661;DHT22;37741;49.748;8.490;2023-07-31T03:26:31;21.70;59.30
51661;DHT22;37741;49.748;8.490;2023-07-31T03:29:04;21.70;59.40
51661;DHT22;37741;49.748;8.490;2023-07-31T03:31:30;21.60;59.50
51661;DHT22;37741;49.748;8.490;2023-07-31T03:33:57;21.60;59.60
51661;DHT22;37741;49.748;8.490;2023-07-31T03:36:22;21.60;59.60
51661;DHT22;37741;49.748;8.490;2023-07-31T03:38:48;21.60;59.60
51661;DHT22;37741;49.748;8.490;2023-07-31T03:41:21;21.50;59.50
51661;DHT22;37741;49.748;8.490;2023-07-31T03:43:54;21.50;59.60
51661;DHT22;37741;49.748;8.490;2023-07-31T03:46:24;21.50;59.70
51661;DHT22;37741;49.748;8.490;2023-07-31T03:49:05;21.50;59.80
51661;DHT22;37741;49.748;8.490;2023-07-31T03:51:31;21.40;59.90
51661;DHT22;37741;49.748;8.490;2023-07-31T03:53:58;21.40;59.90
51661;DHT22;37741;49.748;8.490;2023-07-31T03:56:23;21.40;60.00
51661;DHT22;37741;49.748;8.490;2023-07-31T03:58:49;21.40;60.10
51661;DHT22;37741;49.748;8.490;2023-07-31T04:01:14;21.40;60.30
51661;DHT22;37741;49.748;8.490;2023-07-31T04:03:40;21.30;60.30
51661;DHT22;37741;49.748;8.490;2023-07-31T04:06:05;21.30;60.40
51661;DHT22;37741;49.748;8.490;2023-07-31T04:08:34;21.30;60.40
51661;DHT22;37741;49.748;8.490;2023-07-31T04:11:00;21.30;60.60
51661;DHT22;37741;49.748;8.490;2023-07-31T04:13:25;21.20;60.60
51661;DHT22;37741;49.748;8.490;2023-07-31T04:15:54;21.20;60.70
51661;DHT22;37741;49.748;8.490;2023-07-31T04:18:21;21.20;60.80
51661;DHT22;37741;49.748;8.490;2023-07-31T04:20:55;21.20;60.80
51661;DHT22;37741;49.748;8.490;2023-07-31T04:23:20;21.10;60.90
51661;DHT22;37741;49.748;8.490;2023-07-31T04:25:46;21.10;60.90
51661;DHT22;37741;49.748;8.490;2023-07-31T04:28:13;21.10;61.00
51661;DHT22;37741;49.748;8.490;2023-07-31T04:30:39;21.10;61.10
51661;DHT22;37741;49.748;8.490;2023-07-31T04:33:04;21.10;61.10
51661;DHT22;37741;49.748;8.490;2023-07-31T04:35:30;21.10;61.10
51661;DHT22;37741;49.748;8.490;2023-07-31T04:37:56;21.10;61.10
51661;DHT22;37741;49.748;8.490;2023-07-31T04:40:21;21.10;61.30
51661;DHT22;37741;49.748;8.490;2023-07-31T04:42:47;21.00;61.20
51661;DHT22;37741;49.748;8.490;2023-07-31T04:45:12;21.00;61.30
51661;DHT22;37741;49.748;8.490;2023-07-31T04:47:45;21.00;61.40
51661;DHT22;37741;49.748;8.490;2023-07-31T04:50:11;21.00;61.40
51661;DHT22;37741;49.748;8.490;2023-07-31T04:52:36;21.00;61.40
51661;DHT22;37741;49.748;8.490;2023-07-31T04:55:02;21.00;61.60
51661;DHT22;37741;49.748;8.490;2023-07-31T04:57:30;21.00;61.50
51661;DHT22;37741;49.748;8.490;2023-07-31T04:59:56;20.90;61.60
51661;DHT22;37741;49.748;8.490;2023-07-31T05:02:22;20.90;61.60
51661;DHT22;37741;49.748;8.490;2023-07-31T05:04:50;20.90;61.60
51661;DHT22;37741;49.748;8.490;2023-07-31T05:07:16;20.90;61.60
51661;DHT22;37741;49.748;8.490;2023-07-31T05:09:42;20.90;61.60
51661;DHT22;37741;49.748;8.490;2023-07-31T05:12:08;20.90;61.70
51661;DHT22;37741;49.748;8.490;2023-07-31T05:14:39;20.90;61.80
51661;DHT22;37741;49.748;8.490;2023-07-31T05:17:10;20.90;61.70
51661;DHT22;37741;49.748;8.490;2023-07-31T05:19:38;20.90;61.80
51661;DHT22;37741;49.748;8.490;2023-07-31T05:22:04;20.90;61.80
51661;DHT22;37741;49.748;8.490;2023-07-31T05:24:35;20.90;61.80
51661;DHT22;37741;49.748;8.490;2023-07-31T05:27:05;20.90;61.80
51661;DHT22;37741;49.748;8.490;2023-07-31T05:29:31;20.90;61.80
51661;DHT22;37741;49.748;8.490;2023-07-31T05:32:01;20.90;61.80
51661;DHT22;37741;49.748;8.490;2023-07-31T05:34:27;20.80;61.80
51661;DHT22;37741;49.748;8.490;2023-07-31T05:36:53;20.80;61.80
51661;DHT22;37741;49.748;8.490;2023-07-31T05:39:24;20.80;61.90
51661;DHT22;37741;49.748;8.490;2023-07-31T05:41:50;20.80;61.90
51661;DHT22;37741;49.748;8.490;2023-07-31T05:44:17;20.80;62.00
51661;DHT22;37741;49.748;8.490;2023-07-31T05:46:42;20.80;62.10
51661;DHT22;37741;49.748;8.490;2023-07-31T05:49:09;20.80;62.10
51661;DHT22;37741;49.748;8.490;2023-07-31T05:51:34;20.80;62.00
51661;DHT22;37741;49.748;8.490;2023-07-31T05:54:03;20.90;62.00
51661;DHT22;37741;49.748;8.490;2023-07-31T05:56:28;20.90;61.90
51661;DHT22;37741;49.748;8.490;2023-07-31T05:58:54;20.90;61.80
51661;DHT22;37741;49.748;8.490;2023-07-31T06:01:26;20.90;61.80
51661;DHT22;37741;49.748;8.490;2023-07-31T06:04:00;21.00;61.80
51661;DHT22;37741;49.748;8.490;2023-07-31T06:06:28;21.00;61.80
51661;DHT22;37741;49.748;8.490;2023-07-31T06:08:55;20.90;61.80
51661;DHT22;37741;49.748;8.490;2023-07-31T06:11:22;21.00;61.80
51661;DHT22;37741;49.748;8.490;2023-07-31T06:13:48;21.00;61.80
51661;DHT22;37741;49.748;8.490;2023-07-31T06:16:20;21.00;61.70
51661;DHT22;37741;49.748;8.490;2023-07-31T06:18:48;21.00;61.70
51661;DHT22;37741;49.748;8.490;2023-07-31T06:21:14;21.00;61.70
51661;DHT22;37741;49.748;8.490;2023-07-31T06:23:52;21.10;61.80
51661;DHT22;37741;49.748;8.490;2023-07-31T06:26:18;21.10;61.70
51661;DHT22;37741;49.748;8.490;2023-07-31T06:29:06;21.10;61.60
51661;DHT22;37741;49.748;8.490;2023-07-31T06:31:32;21.20;61.40
51661;DHT22;37741;49.748;8.490;2023-07-31T06:33:59;21.30;61.30
51661;DHT22;37741;49.748;8.490;2023-07-31T06:36:27;21.30;61.30
51661;DHT22;37741;49.748;8.490;2023-07-31T06:38:52;21.30;61.40
51661;DHT22;37741;49.748;8.490;2023-07-31T06:41:18;21.30;61.30
51661;DHT22;37741;49.748;8.490;2023-07-31T06:43:45;21.30;61.30
51661;DHT22;37741;49.748;8.490;2023-07-31T06:46:11;21.30;61.20
51661;DHT22;37741;49.748;8.490;2023-07-31T06:48:38;21.40;61.20
51661;DHT22;37741;49.748;8.490;2023-07-31T06:51:05;21.30;61.20
51661;DHT22;37741;49.748;8.490;2023-07-31T06:53:30;21.30;61.30
51661;DHT22;37741;49.748;8.490;2023-07-31T06:55:56;21.30;61.40
51661;DHT22;37741;49.748;8.490;2023-07-31T06:58:22;21.30;61.50
51661;DHT22;37741;49.748;8.490;2023-07-31T07:00:49;21.30;61.50
51661;DHT22;37741;49.748;8.490;2023-07-31T07:03:18;21.30;61.70
51661;DHT22;37741;49.748;8.490;2023-07-31T07:05:46;21.30;61.70
51661;DHT22;37741;49.748;8.490;2023-07-31T07:08:11;21.30;61.70
51661;DHT22;37741;49.748;8.490;2023-07-31T07:10:49;21.30;61.70
51661;DHT22;37741;49.748;8.490;2023-07-31T07:13:17;21.30;61.80
51661;DHT22;37741;49.748;8.490;2023-07-31T07:15:50;21.30;61.70
51661;DHT22;37741;49.748;8.490;2023-07-31T07:18:17;21.30;61.70
51661;DHT22;37741;49.748;8.490;2023-07-31T07:20:51;21.30;61.70
51661;DHT22;37741;49.748;8.490;2023-07-31T07:23:19;21.40;61.80
51661;DHT22;37741;49.748;8.490;2023-07-31T07:25:46;21.30;61.80
51661;DHT22;37741;49.748;8.490;2023-07-31T07:28:14;21.30;61.90
51661;DHT22;37741;49.748;8.490;2023-07-31T07:30:40;21.30;62.00
51661;DHT22;37741;49.748;8.490;2023-07-31T07:33:05;21.30;62.10
51661;DHT22;37741;49.748;8.490;2023-07-31T07:35:36;21.30;62.10
51661;DHT22;37741;49.748;8.490;2023-07-31T07:38:02;21.30;62.20
51661;DHT22;37741;49.748;8.490;2023-07-31T07:40:31;21.20;62.20
51661;DHT22;37741;49.748;8.490;2023-07-31T07:42:57;21.20;62.20
51661;DHT22;37741;49.748;8.490;2023-07-31T07:45:32;21.20;62.20
51661;DHT22;37741;49.748;8.490;2023-07-31T07:47:59;21.20;62.30
51661;DHT22;37741;49.748;8.490;2023-07-31T07:50:25;21.20;62.30
51661;DHT22;37741;49.748;8.490;2023-07-31T07:52:51;21.20;62.40
51661;DHT22;37741;49.748;8.490;2023-07-31T07:55:16;21.20;62.40
51661;DHT22;37741;49.748;8.490;2023-07-31T07:57:42;21.30;62.40
51661;DHT22;37741;49.748;8.490;2023-07-31T08:00:20;21.30;62.60
51661;DHT22;37741;49.748;8.490;2023-07-31T08:02:46;21.30;62.50
51661;DHT22;37741;49.748;8.490;2023-07-31T08:05:12;21.30;62.60
51661;DHT22;37741;49.748;8.490;2023-07-31T08:07:40;21.30;62.60
51661;DHT22;37741;49.748;8.490;2023-07-31T08:10:11;21.30;62.60
51661;DHT22;37741;49.748;8.490;2023-07-31T08:12:38;21.40;62.80
51661;DHT22;37741;49.748;8.490;2023-07-31T08:15:06;21.40;62.80
51661;DHT22;37741;49.748;8.490;2023-07-31T08:17:32;21.50;62.80
51661;DHT22;37741;49.748;8.490;2023-07-31T08:19:57;21.50;62.80
51661;DHT22;37741;49.748;8.490;2023-07-31T08:22:24;21.50;62.70
51661;DHT22;37741;49.748;8.490;2023-07-31T08:24:50;21.50;62.60
51661;DHT22;37741;49.748;8.490;2023-07-31T08:27:15;21.60;62.60
51661;DHT22;37741;49.748;8.490;2023-07-31T08:29:41;21.50;62.50
51661;DHT22;37741;49.748;8.490;2023-07-31T08:32:11;21.60;62.70
51661;DHT22;37741;49.748;8.490;2023-07-31T08:34:38;21.60;62.60
51661;DHT22;37741;49.748;8.490;2023-07-31T08:37:04;21.60;62.60
51661;DHT22;37741;49.748;8.490;2023-07-31T08:39:30;21.60;62.40
51661;DHT22;37741;49.748;8.490;2023-07-31T08:41:59;21.70;62.70
51661;DHT22;37741;49.748;8.490;2023-07-31T08:44:50;21.60;62.50
51661;DHT22;37741;49.748;8.490;2023-07-31T08:47:16;21.70;62.30
51661;DHT22;37741;49.748;8.490;2023-07-31T08:49:46;21.70;62.40
51661;DHT22;37741;49.748;8.490;2023-07-31T08:52:12;21.80;62.50
51661;DHT22;37741;49.748;8.490;2023-07-31T08:54:38;21.80;62.50
51661;DHT22;37741;49.748;8.490;2023-07-31T08:57:09;21.90;62.40
51661;DHT22;37741;49.748;8.490;2023-07-31T08:59:38;21.90;62.20
51661;DHT22;37741;49.748;8.490;2023-07-31T09:02:08;22.00;62.10
51661;DHT22;37741;49.748;8.490;2023-07-31T09:04:34;22.00;61.90
51661;DHT22;37741;49.748;8.490;2023-07-31T09:07:03;22.10;61.80
51661;DHT22;37741;49.748;8.490;2023-07-31T09:09:49;22.10;61.60
51661;DHT22;37741;49.748;8.490;2023-07-31T09:12:15;22.20;61.50
51661;DHT22;37741;49.748;8.490;2023-07-31T09:14:45;22.30;61.30
51661;DHT22;37741;49.748;8.490;2023-07-31T09:17:15;22.30;61.30
51661;DHT22;37741;49.748;8.490;2023-07-31T09:19:43;22.40;61.00
51661;DHT22;37741;49.748;8.490;2023-07-31T09:22:09;22.40;60.90
51661;DHT22;37741;49.748;8.490;2023-07-31T09:24:35;22.40;60.70
51661;DHT22;37741;49.748;8.490;2023-07-31T09:27:03;22.50;60.30
51661;DHT22;37741;49.748;8.490;2023-07-31T09:29:29;22.50;60.20
51661;DHT22;37741;49.748;8.490;2023-07-31T09:32:04;22.60;60.20
51661;DHT22;37741;49.748;8.490;2023-07-31T09:34:37;22.60;59.90
51661;DHT22;37741;49.748;8.490;2023-07-31T09:37:04;22.60;59.80
51661;DHT22;37741;49.748;8.490;2023-07-31T09:39:33;22.70;59.30
51661;DHT22;37741;49.748;8.490;2023-07-31T09:42:13;22.70;59.20
51661;DHT22;37741;49.748;8.490;2023-07-31T09:44:43;22.70;59.60
51661;DHT22;37741;49.748;8.490;2023-07-31T09:47:36;22.70;59.40
51661;DHT22;37741;49.748;8.490;2023-07-31T09:50:08;22.70;59.20
51661;DHT22;37741;49.748;8.490;2023-07-31T09:52:38;22.80;59.20
51661;DHT22;37741;49.748;8.490;2023-07-31T09:55:04;22.80;59.40
51661;DHT22;37741;49.748;8.490;2023-07-31T09:57:30;22.90;59.50
51661;DHT22;37741;49.748;8.490;2023-07-31T10:00:02;22.90;59.30
51661;DHT22;37741;49.748;8.490;2023-07-31T10:02:28;22.90;59.30
51661;DHT22;37741;49.748;8.490;2023-07-31T10:04:57;22.90;59.00
51661;DHT22;37741;49.748;8.490;2023-07-31T10:07:25;22.90;58.80
51661;DHT22;37741;49.748;8.490;2023-07-31T10:10:00;23.00;58.90
51661;DHT22;37741;49.748;8.490;2023-07-31T10:12:27;23.00;58.70
51661;DHT22;37741;49.748;8.490;2023-07-31T10:14:55;23.00;58.70
51661;DHT22;37741;49.748;8.490;2023-07-31T10:17:22;23.00;58.90
51661;DHT22;37741;49.748;8.490;2023-07-31T10:19:49;23.00;58.90
51661;DHT22;37741;49.748;8.490;2023-07-31T10:22:16;23.00;58.70
51661;DHT22;37741;49.748;8.490;2023-07-31T10:24:45;23.00;58.60
51661;DHT22;37741;49.748;8.490;2023-07-31T10:27:11;23.00;58.90
51661;DHT22;37741;49.748;8.490;2023-07-31T10:29:43;23.10;58.70
51661;DHT22;37741;49.748;8.490;2023-07-31T10:32:16;23.10;59.10
51661;DHT22;37741;49.748;8.490;2023-07-31T10:34:43;23.10;59.20
51661;DHT22;37741;49.748;8.490;2023-07-31T10:37:37;23.10;58.60
51661;DHT22;37741;49.748;8.490;2023-07-31T10:40:05;23.10;58.10
51661;DHT22;37741;49.748;8.490;2023-07-31T10:42:37;23.10;58.40
51661;DHT22;37741;49.748;8.490;2023-07-31T10:45:07;23.10;58.90
51661;DHT22;37741;49.748;8.490;2023-07-31T10:47:42;23.10;58.50
51661;DHT22;37741;49.748;8.490;2023-07-31T10:50:21;23.20;58.30
51661;DHT22;37741;49.748;8.490;2023-07-31T10:52:56;23.20;58.00
51661;DHT22;37741;49.748;8.490;2023-07-31T10:55:40;23.20;58.30
51661;DHT22;37741;49.748;8.490;2023-07-31T10:58:09;23.20;58.10
51661;DHT22;37741;49.748;8.490;2023-07-31T11:00:37;23.30;58.30
51661;DHT22;37741;49.748;8.490;2023-07-31T11:03:08;23.30;58.20
51661;DHT22;37741;49.748;8.490;2023-07-31T11:05:52;23.30;58.20
51661;DHT22;37741;49.748;8.490;2023-07-31T11:08:41;23.30;58.30
51661;DHT22;37741;49.748;8.490;2023-07-31T11:11:13;23.40;58.10
51661;DHT22;37741;49.748;8.490;2023-07-31T11:13:47;23.40;57.90
51661;DHT22;37741;49.748;8.490;2023-07-31T11:16:24;23.40;58.30
51661;DHT22;37741;49.748;8.490;2023-07-31T11:18:51;23.40;58.40
51661;DHT22;37741;49.748;8.490;2023-07-31T11:21:25;23.30;58.30
51661;DHT22;37741;49.748;8.490;2023-07-31T11:23:53;23.30;58.20
51661;DHT22;37741;49.748;8.490;2023-07-31T11:26:27;23.40;58.50
51661;DHT22;37741;49.748;8.490;2023-07-31T11:28:53;23.40;58.60
51661;DHT22;37741;49.748;8.490;2023-07-31T11:31:19;23.40;59.20
51661;DHT22;37741;49.748;8.490;2023-07-31T11:34:06;23.40;59.40
51661;DHT22;37741;49.748;8.490;2023-07-31T11:36:33;23.40;59.40
51661;DHT22;37741;49.748;8.490;2023-07-31T11:39:08;23.40;59.40
51661;DHT22;37741;49.748;8.490;2023-07-31T11:41:34;23.40;59.80
51661;DHT22;37741;49.748;8.490;2023-07-31T11:44:00;23.40;59.80
51661;DHT22;37741;49.748;8.490;2023-07-31T11:46:30;23.50;59.90
51661;DHT22;37741;49.748;8.490;2023-07-31T11:49:00;23.40;59.70
51661;DHT22;37741;49.748;8.490;2023-07-31T11:51:29;23.50;59.50
51661;DHT22;37741;49.748;8.490;2023-07-31T11:53:58;23.50;59.70
51661;DHT22;37741;49.748;8.490;2023-07-31T11:56:26;23.50;59.50
51661;DHT22;37741;49.748;8.490;2023-07-31T11:58:58;23.50;59.00
51661;DHT22;37741;49.748;8.490;2023-07-31T12:01:25;23.60;59.00
51661;DHT22;37741;49.748;8.490;2023-07-31T12:03:53;23.60;59.00
51661;DHT22;37741;49.748;8.490;2023-07-31T12:06:19;23.60;58.60
51661;DHT22;37741;49.748;8.490;2023-07-31T12:09:04;23.70;58.60
51661;DHT22;37741;49.748;8.490;2023-07-31T12:11:54;23.70;58.10
51661;DHT22;37741;49.748;8.490;2023-07-31T12:14:29;23.80;58.30
51661;DHT22;37741;49.748;8.490;2023-07-31T12:16:57;23.90;57.80
51661;DHT22;37741;49.748;8.490;2023-07-31T12:19:25;23.90;57.80
51661;DHT22;37741;49.748;8.490;2023-07-31T12:21:56;23.90;57.70
51661;DHT22;37741;49.748;8.490;2023-07-31T12:24:23;24.00;57.80
51661;DHT22;37741;49.748;8.490;2023-07-31T12:26:49;24.00;57.70
51661;DHT22;37741;49.748;8.490;2023-07-31T12:29:15;24.00;57.80
51661;DHT22;37741;49.748;8.490;2023-07-31T12:31:47;24.00;57.70
51661;DHT22;37741;49.748;8.490;2023-07-31T12:34:20;24.00;57.50
51661;DHT22;37741;49.748;8.490;2023-07-31T12:36:47;24.00;57.70
51661;DHT22;37741;49.748;8.490;2023-07-31T12:39:18;24.00;57.40
51661;DHT22;37741;49.748;8.490;2023-07-31T12:41:44;24.00;57.10
51661;DHT22;37741;49.748;8.490;2023-07-31T12:44:10;24.00;57.10
51661;DHT22;37741;49.748;8.490;2023-07-31T12:46:39;24.00;57.30
51661;DHT22;37741;49.748;8.490;2023-07-31T12:49:04;24.00;57.10
51661;DHT22;37741;49.748;8.490;2023-07-31T12:51:30;24.00;57.20
51661;DHT22;37741;49.748;8.490;2023-07-31T12:53:55;24.00;57.20
51661;DHT22;37741;49.748;8.490;2023-07-31T12:56:21;24.00;57.30
51661;DHT22;37741;49.748;8.490;2023-07-31T12:58:47;24.00;57.30
51661;DHT22;37741;49.748;8.490;2023-07-31T13:01:12;24.00;57.10
51661;DHT22;37741;49.748;8.490;2023-07-31T13:03:38;24.00;57.20
51661;DHT22;37741;49.748;8.490;2023-07-31T13:06:04;24.00;57.40
51661;DHT22;37741;49.748;8.490;2023-07-31T13:08:30;24.00;57.10
51661;DHT22;37741;49.748;8.490;2023-07-31T13:10:59;24.10;57.30
51661;DHT22;37741;49.748;8.490;2023-07-31T13:13:25;24.10;57.10
51661;DHT22;37741;49.748;8.490;2023-07-31T13:15:51;24.10;57.40
51661;DHT22;37741;49.748;8.490;2023-07-31T13:18:17;24.10;57.50
51661;DHT22;37741;49.748;8.490;2023-07-31T13:20:43;24.10;57.50
51661;DHT22;37741;49.748;8.490;2023-07-31T13:23:09;24.10;57.50
51661;DHT22;37741;49.748;8.490;2023-07-31T13:25:52;24.10;57.50
51661;DHT22;37741;49.748;8.490;2023-07-31T13:28:18;24.00;57.60
51661;DHT22;37741;49.748;8.490;2023-07-31T13:30:44;24.00;57.60
51661;DHT22;37741;49.748;8.490;2023-07-31T13:33:10;24.00;57.60
51661;DHT22;37741;49.748;8.490;2023-07-31T13:35:35;24.00;57.80
51661;DHT22;37741;49.748;8.490;2023-07-31T13:38:06;24.00;57.80
51661;DHT22;37741;49.748;8.490;2023-07-31T13:40:32;24.00;57.80
51661;DHT22;37741;49.748;8.490;2023-07-31T13:42:58;24.00;58.00
51661;DHT22;37741;49.748;8.490;2023-07-31T13:45:23;24.00;58.10
51661;DHT22;37741;49.748;8.490;2023-07-31T13:47:50;24.00;58.10
51661;DHT22;37741;49.748;8.490;2023-07-31T13:50:17;24.00;58.20
51661;DHT22;37741;49.748;8.490;2023-07-31T13:52:45;23.90;58.10
51661;DHT22;37741;49.748;8.490;2023-07-31T13:55:17;23.90;58.10
51661;DHT22;37741;49.748;8.490;2023-07-31T13:57:43;24.00;58.40
51661;DHT22;37741;49.748;8.490;2023-07-31T14:00:13;23.90;58.30
51661;DHT22;37741;49.748;8.490;2023-07-31T14:02:48;23.90;58.30
51661;DHT22;37741;49.748;8.490;2023-07-31T14:05:18;23.90;58.20
51661;DHT22;37741;49.748;8.490;2023-07-31T14:07:44;23.90;58.40
51661;DHT22;37741;49.748;8.490;2023-07-31T14:10:10;24.00;58.40
51661;DHT22;37741;49.748;8.490;2023-07-31T14:12:36;23.90;58.40
51661;DHT22;37741;49.748;8.490;2023-07-31T14:15:01;23.90;58.40
51661;DHT22;37741;49.748;8.490;2023-07-31T14:17:37;23.90;58.40
51661;DHT22;37741;49.748;8.490;2023-07-31T14:20:03;23.90;58.50
51661;DHT22;37741;49.748;8.490;2023-07-31T14:22:30;23.90;58.40
51661;DHT22;37741;49.748;8.490;2023-07-31T14:24:58;23.90;58.50
51661;DHT22;37741;49.748;8.490;2023-07-31T14:27:24;23.90;58.50
51661;DHT22;37741;49.748;8.490;2023-07-31T14:29:50;23.90;58.50
51661;DHT22;37741;49.748;8.490;2023-07-31T14:32:24;23.90;58.50
51661;DHT22;37741;49.748;8.490;2023-07-31T14:34:51;23.90;58.60
51661;DHT22;37741;49.748;8.490;2023-07-31T14:37:18;23.90;58.60
51661;DHT22;37741;49.748;8.490;2023-07-31T14:39:44;23.90;58.60
51661;DHT22;37741;49.748;8.490;2023-07-31T14:42:15;23.90;58.50
51661;DHT22;37741;49.748;8.490;2023-07-31T14:44:49;23.90;58.40
51661;DHT22;37741;49.748;8.490;2023-07-31T14:47:15;23.90;58.40
51661;DHT22;37741;49.748;8.490;2023-07-31T14:49:52;23.90;58.50
51661;DHT22;37741;49.748;8.490;2023-07-31T14:52:17;23.90;58.00
51661;DHT22;37741;49.748;8.490;2023-07-31T14:54:46;23.90;57.70
51661;DHT22;37741;49.748;8.490;2023-07-31T14:57:15;24.00;57.70
51661;DHT22;37741;49.748;8.490;2023-07-31T14:59:48;24.00;57.80
51661;DHT22;37741;49.748;8.490;2023-07-31T15:02:27;24.00;57.80
51661;DHT22;37741;49.748;8.490;2023-07-31T15:04:59;24.10;57.80
51661;DHT22;37741;49.748;8.490;2023-07-31T15:07:25;24.10;57.50
51661;DHT22;37741;49.748;8.490;2023-07-31T15:09:52;24.20;57.60
51661;DHT22;37741;49.748;8.490;2023-07-31T15:12:19;24.20;57.40
51661;DHT22;37741;49.748;8.490;2023-07-31T15:14:50;24.20;57.20
51661;DHT22;37741;49.748;8.490;2023-07-31T15:17:44;24.30;57.30
51661;DHT22;37741;49.748;8.490;2023-07-31T15:20:25;24.30;57.30
51661;DHT22;37741;49.748;8.490;2023-07-31T15:22:51;24.30;57.10
51661;DHT22;37741;49.748;8.490;2023-07-31T15:25:18;24.30;57.00
51661;DHT22;37741;49.748;8.490;2023-07-31T15:27:44;24.40;57.10
51661;DHT22;37741;49.748;8.490;2023-07-31T15:30:11;24.40;57.00
51661;DHT22;37741;49.748;8.490;2023-07-31T15:32:43;24.30;56.90
51661;DHT22;37741;49.748;8.490;2023-07-31T15:35:15;24.40;57.20
51661;DHT22;37741;49.748;8.490;2023-07-31T15:37:41;24.40;57.20
51661;DHT22;37741;49.748;8.490;2023-07-31T15:40:16;24.40;56.60
51661;DHT22;37741;49.748;8.490;2023-07-31T15:42:41;24.40;56.60
51661;DHT22;37741;49.748;8.490;2023-07-31T15:45:08;24.40;56.40